Time,TemperatureF,DewpointF,PressureIn,WindDirection,WindDirectionDegrees,WindSpeedMPH,WindSpeedGustMPH,Humidity,HourlyPrecipIn,Conditions,Clouds,dailyrainin,SoftwareType,DateUTC
2013-03-27 00:02:00,56.0,-99.9,-100.00,SSW,202,5.0,7.0,-999,-99.99,,,-99.99,,2013-03-27 07:02:00,
2013-03-27 00:12:00,56.0,-99.9,-100.00,SSW,202,5.0,7.0,-999,-99.99,,,-99.99,,2013-03-27 07:12:00,
2013-03-27 01:03:00,56.0,-99.9,-100.00,West,280,3.0,5.0,-999,-99.99,,,-99.99,,2013-03-27 08:03:00,
2013-03-27 01:13:00,56.0,-99.9,-100.00,West,280,3.0,5.0,-999,-99.99,,,-99.99,,2013-03-27 08:13:00,
2013-03-27 02:02:00,54.0,-99.9,-100.00,SSE,153,3.0,3.0,-999,-99.99,,,-99.99,,2013-03-27 09:02:00,
2013-03-27 02:12:00,54.0,-99.9,-100.00,SSE,153,3.0,3.0,-999,-99.99,,,-99.99,,2013-03-27 09:12:00,
2013-03-27 03:03:00,53.0,-99.9,-100.00,SE,136,3.0,6.0,-999,-99.99,,,-99.99,,2013-03-27 10:03:00,
2013-03-27 03:13:00,53.0,-99.9,-100.00,SE,136,3.0,6.0,-999,-99.99,,,-99.99,,2013-03-27 10:13:00,
2013-03-27 04:03:00,51.0,-99.9,-100.00,SE,133,6.0,8.0,-999,-99.99,,,-99.99,,2013-03-27 11:03:00,
2013-03-27 04:12:00,51.0,-99.9,-100.00,SE,133,6.0,8.0,-999,-99.99,,,-99.99,,2013-03-27 11:12:00,
2013-03-27 05:03:00,50.0,-99.9,-100.00,SE,141,3.0,6.0,-999,-99.99,,,-99.99,,2013-03-27 12:03:00,
2013-03-27 05:12:00,50.0,-99.9,-100.00,SE,141,3.0,6.0,-999,-99.99,,,-99.99,,2013-03-27 12:12:00,
2013-03-27 06:02:00,49.0,-99.9,-100.00,SE,146,5.0,7.0,-999,-99.99,,,-99.99,,2013-03-27 13:02:00,
2013-03-27 06:12:00,49.0,-99.9,-100.00,SE,146,5.0,7.0,-999,-99.99,,,-99.99,,2013-03-27 13:12:00,
2013-03-27 07:02:00,48.0,-99.9,-100.00,SE,130,3.0,6.0,-999,-99.99,,,-99.99,,2013-03-27 14:02:00,
2013-03-27 07:12:00,48.0,-99.9,-100.00,SE,130,3.0,6.0,-999,-99.99,,,-99.99,,2013-03-27 14:12:00,
2013-03-27 08:03:00,49.0,-99.9,-100.00,West,267,1.0,3.0,-999,-99.99,,,-99.99,,2013-03-27 15:03:00,
2013-03-27 08:12:00,49.0,-99.9,-100.00,West,267,1.0,3.0,-999,-99.99,,,-99.99,,2013-03-27 15:12:00,
2013-03-27 09:03:00,49.0,-99.9,-100.00,ESE,111,3.0,6.0,-999,-99.99,,,-99.99,,2013-03-27 16:03:00,
2013-03-27 09:13:00,49.0,-99.9,-100.00,ESE,111,3.0,6.0,-999,-99.99,,,-99.99,,2013-03-27 16:13:00,
2013-03-27 11:03:00,54.0,-99.9,-100.00,SE,131,3.0,8.0,-999,-99.99,,,-99.99,,2013-03-27 18:03:00,
2013-03-27 11:12:00,54.0,-99.9,-100.00,SE,131,3.0,8.0,-999,-99.99,,,-99.99,,2013-03-27 18:12:00,
2013-03-27 12:03:00,57.0,-99.9,-100.00,NE,39,3.0,5.0,-999,-99.99,,,-99.99,,2013-03-27 19:03:00,
2013-03-27 12:12:00,57.0,-99.9,-100.00,NE,39,3.0,5.0,-999,-99.99,,,-99.99,,2013-03-27 19:12:00,
2013-03-27 13:03:00,57.0,-99.9,-100.00,NNW,330,5.0,8.0,-999,-99.99,,,-99.99,,2013-03-27 20:03:00,
2013-03-27 13:12:00,57.0,-99.9,-100.00,NNW,330,5.0,8.0,-999,-99.99,,,-99.99,,2013-03-27 20:12:00,
2013-03-27 14:03:00,59.0,-99.9,-100.00,ENE,63,5.0,10.0,-999,-99.99,,,-99.99,,2013-03-27 21:03:00,
2013-03-27 14:12:00,59.0,-99.9,-100.00,ENE,63,5.0,10.0,-999,-99.99,,,-99.99,,2013-03-27 21:12:00,
2013-03-27 15:03:00,62.0,-99.9,-100.00,East,79,3.0,12.0,-999,-99.99,,,-99.99,,2013-03-27 22:03:00,
2013-03-27 15:12:00,62.0,-99.9,-100.00,East,79,3.0,12.0,-999,-99.99,,,-99.99,,2013-03-27 22:12:00,
2013-03-27 16:03:00,63.0,-99.9,-100.00,NE,35,3.0,8.0,-999,-99.99,,,-99.99,,2013-03-27 23:03:00,
2013-03-27 16:12:00,63.0,-99.9,-100.00,NE,35,3.0,8.0,-999,-99.99,,,-99.99,,2013-03-27 23:12:00,
2013-03-27 17:02:00,64.0,-99.9,-100.00,NNE,20,6.0,12.0,-999,-99.99,,,-99.99,,2013-03-28 00:02:00,
2013-03-27 17:12:00,64.0,-99.9,-100.00,NNE,20,6.0,12.0,-999,-99.99,,,-99.99,,2013-03-28 00:12:00,
2013-03-27 18:03:00,64.0,-99.9,-100.00,North,353,9.0,13.0,-999,-99.99,,,-99.99,,2013-03-28 01:03:00,
2013-03-27 18:12:00,64.0,-99.9,-100.00,North,353,9.0,13.0,-999,-99.99,,,-99.99,,2013-03-28 01:12:00,
2013-03-27 19:03:00,63.0,-99.9,-100.00,NNW,346,10.0,13.0,-999,-99.99,,,-99.99,,2013-03-28 02:03:00,
2013-03-27 19:12:00,63.0,-99.9,-100.00,NNW,346,10.0,13.0,-999,-99.99,,,-99.99,,2013-03-28 02:12:00,
2013-03-27 20:03:00,60.0,-99.9,-100.00,NNW,338,7.0,9.0,-999,-99.99,,,-99.99,,2013-03-28 03:03:00,
2013-03-27 20:12:00,60.0,-99.9,-100.00,NNW,338,7.0,9.0,-999,-99.99,,,-99.99,,2013-03-28 03:12:00,
2013-03-27 21:03:00,56.0,-99.9,-100.00,NNW,347,6.0,8.0,-999,-99.99,,,-99.99,,2013-03-28 04:03:00,
2013-03-27 21:12:00,56.0,-99.9,-100.00,NNW,347,6.0,8.0,-999,-99.99,,,-99.99,,2013-03-28 04:12:00,
2013-03-27 22:02:00,55.0,-99.9,-100.00,NNW,347,7.0,8.0,-999,-99.99,,,-99.99,,2013-03-28 05:02:00,
2013-03-27 22:13:00,55.0,-99.9,-100.00,NNW,347,7.0,8.0,-999,-99.99,,,-99.99,,2013-03-28 05:13:00,